sensor_id;sensor_type;location;lat;lon;timestamp;P1;durP1;ratioP1;P2;durP2;ratioP2
13032;SDS011;6583;42.632;23.298;2024-03-29T00:00:12;4.40;;;2.20;;
13032;SDS011;6583;42.632;23.298;2024-03-29T00:02:39;4.23;;;1.77;;
13032;SDS011;6583;42.632;23.298;2024-03-29T00:05:05;3.73;;;2.10;;
13032;SDS011;6583;42.632;23.298;2024-03-29T00:07:31;3.93;;;1.93;;
13032;SDS011;6583;42.632;23.298;2024-03-29T00:09:57;4.63;;;2.00;;
13032;SDS011;6583;42.632;23.298;2024-03-29T00:12:24;5.37;;;2.03;;
13032;SDS011;6583;42.632;23.298;2024-03-29T00:14:49;4.00;;;2.20;;
13032;SDS011;6583;42.632;23.298;2024-03-29T00:17:15;4.93;;;2.00;;
13032;SDS011;6583;42.632;23.298;2024-03-29T00:19:41;3.70;;;2.20;;
13032;SDS011;6583;42.632;23.298;2024-03-29T00:22:07;5.90;;;2.40;;
13032;SDS011;6583;42.632;23.298;2024-03-29T00:24:32;3.73;;;2.23;;
13032;SDS011;6583;42.632;23.298;2024-03-29T00:26:58;5.07;;;2.27;;
13032;SDS011;6583;42.632;23.298;2024-03-29T00:29:25;3.63;;;2.30;;
13032;SDS011;6583;42.632;23.298;2024-03-29T00:31:51;3.20;;;1.83;;
13032;SDS011;6583;42.632;23.298;2024-03-29T00:34:17;4.87;;;2.20;;
13032;SDS011;6583;42.632;23.298;2024-03-29T00:36:43;4.83;;;1.90;;
13032;SDS011;6583;42.632;23.298;2024-03-29T00:39:09;3.60;;;1.97;;
13032;SDS011;6583;42.632;23.298;2024-03-29T00:41:34;3.50;;;2.10;;
13032;SDS011;6583;42.632;23.298;2024-03-29T00:44:00;6.00;;;2.10;;
13032;SDS011;6583;42.632;23.298;2024-03-29T00:46:27;5.00;;;1.80;;
13032;SDS011;6583;42.632;23.298;2024-03-29T00:48:53;6.57;;;1.90;;
13032;SDS011;6583;42.632;23.298;2024-03-29T00:51:18;4.73;;;1.97;;
13032;SDS011;6583;42.632;23.298;2024-03-29T00:53:44;4.23;;;2.10;;
13032;SDS011;6583;42.632;23.298;2024-03-29T00:56:10;6.13;;;2.00;;
13032;SDS011;6583;42.632;23.298;2024-03-29T00:58:35;4.70;;;1.70;;
13032;SDS011;6583;42.632;23.298;2024-03-29T01:01:01;4.07;;;1.80;;
13032;SDS011;6583;42.632;23.298;2024-03-29T01:03:28;2.40;;;1.60;;
13032;SDS011;6583;42.632;23.298;2024-03-29T01:05:54;4.40;;;1.70;;
13032;SDS011;6583;42.632;23.298;2024-03-29T01:08:20;4.10;;;1.63;;
13032;SDS011;6583;42.632;23.298;2024-03-29T01:10:46;2.60;;;1.40;;
13032;SDS011;6583;42.632;23.298;2024-03-29T01:13:12;3.43;;;1.70;;
13032;SDS011;6583;42.632;23.298;2024-03-29T01:15:37;4.10;;;1.60;;
13032;SDS011;6583;42.632;23.298;2024-03-29T01:18:03;4.07;;;1.80;;
13032;SDS011;6583;42.632;23.298;2024-03-29T01:20:31;2.77;;;1.80;;
13032;SDS011;6583;42.632;23.298;2024-03-29T01:22:56;3.13;;;1.50;;
13032;SDS011;6583;42.632;23.298;2024-03-29T01:25:22;3.00;;;1.60;;
13032;SDS011;6583;42.632;23.298;2024-03-29T01:27:48;2.03;;;1.50;;
13032;SDS011;6583;42.632;23.298;2024-03-29T01:30:13;3.73;;;1.47;;
13032;SDS011;6583;42.632;23.298;2024-03-29T01:32:39;3.90;;;1.30;;
13032;SDS011;6583;42.632;23.298;2024-03-29T01:35:05;3.07;;;1.23;;
13032;SDS011;6583;42.632;23.298;2024-03-29T01:37:32;2.37;;;1.20;;
13032;SDS011;6583;42.632;23.298;2024-03-29T01:39:58;2.37;;;1.17;;
13032;SDS011;6583;42.632;23.298;2024-03-29T01:42:24;3.17;;;1.00;;
13032;SDS011;6583;42.632;23.298;2024-03-29T01:44:49;3.17;;;1.50;;
13032;SDS011;6583;42.632;23.298;2024-03-29T01:47:16;3.33;;;1.50;;
13032;SDS011;6583;42.632;23.298;2024-03-29T01:49:44;2.90;;;1.00;;
13032;SDS011;6583;42.632;23.298;2024-03-29T01:52:11;1.67;;;0.97;;
13032;SDS011;6583;42.632;23.298;2024-03-29T01:54:42;2.20;;;1.00;;
13032;SDS011;6583;42.632;23.298;2024-03-29T01:57:09;3.23;;;1.00;;
13032;SDS011;6583;42.632;23.298;2024-03-29T01:59:36;3.37;;;1.10;;
13032;SDS011;6583;42.632;23.298;2024-03-29T02:02:04;1.67;;;1.13;;
13032;SDS011;6583;42.632;23.298;2024-03-29T02:04:31;2.17;;;1.10;;
13032;SDS011;6583;42.632;23.298;2024-03-29T02:06:58;2.13;;;1.00;;
13032;SDS011;6583;42.632;23.298;2024-03-29T02:09:25;1.80;;;0.97;;
13032;SDS011;6583;42.632;23.298;2024-03-29T02:11:53;2.47;;;1.00;;
13032;SDS011;6583;42.632;23.298;2024-03-29T02:14:19;2.10;;;1.20;;
13032;SDS011;6583;42.632;23.298;2024-03-29T02:16:46;1.70;;;1.00;;
13032;SDS011;6583;42.632;23.298;2024-03-29T02:19:13;2.27;;;1.00;;
13032;SDS011;6583;42.632;23.298;2024-03-29T02:21:41;1.77;;;1.20;;
13032;SDS011;6583;42.632;23.298;2024-03-29T02:24:12;2.43;;;1.00;;
13032;SDS011;6583;42.632;23.298;2024-03-29T02:26:41;3.93;;;0.87;;
13032;SDS011;6583;42.632;23.298;2024-03-29T02:29:08;2.57;;;1.20;;
13032;SDS011;6583;42.632;23.298;2024-03-29T02:31:35;3.87;;;1.43;;
13032;SDS011;6583;42.632;23.298;2024-03-29T02:34:01;1.97;;;1.40;;
13032;SDS011;6583;42.632;23.298;2024-03-29T02:36:28;2.60;;;1.30;;
13032;SDS011;6583;42.632;23.298;2024-03-29T02:38:55;2.27;;;1.23;;
13032;SDS011;6583;42.632;23.298;2024-03-29T02:41:23;2.13;;;0.90;;
13032;SDS011;6583;42.632;23.298;2024-03-29T02:43:51;1.83;;;1.20;;
13032;SDS011;6583;42.632;23.298;2024-03-29T02:46:17;2.57;;;1.10;;
13032;SDS011;6583;42.632;23.298;2024-03-29T02:48:44;2.23;;;1.07;;
13032;SDS011;6583;42.632;23.298;2024-03-29T02:51:11;2.40;;;0.90;;
13032;SDS011;6583;42.632;23.298;2024-03-29T02:53:36;1.93;;;1.07;;
13032;SDS011;6583;42.632;23.298;2024-03-29T02:56:03;2.53;;;1.00;;
13032;SDS011;6583;42.632;23.298;2024-03-29T02:58:31;3.57;;;1.23;;
13032;SDS011;6583;42.632;23.298;2024-03-29T03:01:04;2.57;;;1.00;;
13032;SDS011;6583;42.632;23.298;2024-03-29T03:03:30;2.50;;;1.13;;
13032;SDS011;6583;42.632;23.298;2024-03-29T03:05:57;2.73;;;1.10;;
13032;SDS011;6583;42.632;23.298;2024-03-29T03:08:23;3.07;;;1.07;;
13032;SDS011;6583;42.632;23.298;2024-03-29T03:11:07;1.80;;;1.10;;
13032;SDS011;6583;42.632;23.298;2024-03-29T03:13:36;3.50;;;1.20;;
13032;SDS011;6583;42.632;23.298;2024-03-29T03:16:01;4.17;;;1.03;;
13032;SDS011;6583;42.632;23.298;2024-03-29T03:18:29;3.10;;;0.93;;
13032;SDS011;6583;42.632;23.298;2024-03-29T03:20:55;2.50;;;1.10;;
13032;SDS011;6583;42.632;23.298;2024-03-29T03:23:23;2.87;;;1.00;;
13032;SDS011;6583;42.632;23.298;2024-03-29T03:25:53;2.40;;;1.20;;
13032;SDS011;6583;42.632;23.298;2024-03-29T03:28:19;1.83;;;0.93;;
13032;SDS011;6583;42.632;23.298;2024-03-29T03:30:48;2.47;;;1.13;;
13032;SDS011;6583;42.632;23.298;2024-03-29T03:33:13;3.00;;;1.00;;
13032;SDS011;6583;42.632;23.298;2024-03-29T03:35:40;1.77;;;0.90;;
13032;SDS011;6583;42.632;23.298;2024-03-29T03:38:06;1.53;;;1.00;;
13032;SDS011;6583;42.632;23.298;2024-03-29T03:40:33;2.80;;;1.10;;
13032;SDS011;6583;42.632;23.298;2024-03-29T03:42:59;2.80;;;1.00;;
13032;SDS011;6583;42.632;23.298;2024-03-29T03:45:26;2.17;;;1.00;;
13032;SDS011;6583;42.632;23.298;2024-03-29T03:47:53;1.37;;;0.80;;
13032;SDS011;6583;42.632;23.298;2024-03-29T03:50:20;4.27;;;0.90;;
13032;SDS011;6583;42.632;23.298;2024-03-29T03:52:46;2.83;;;0.90;;
13032;SDS011;6583;42.632;23.298;2024-03-29T03:55:12;3.23;;;1.10;;
13032;SDS011;6583;42.632;23.298;2024-03-29T03:57:38;3.73;;;1.10;;
13032;SDS011;6583;42.632;23.298;2024-03-29T04:00:05;3.67;;;1.10;;
13032;SDS011;6583;42.632;23.298;2024-03-29T04:02:32;1.67;;;0.90;;
13032;SDS011;6583;42.632;23.298;2024-03-29T04:05:00;2.07;;;1.00;;
13032;SDS011;6583;42.632;23.298;2024-03-29T04:07:25;2.13;;;1.07;;
13032;SDS011;6583;42.632;23.298;2024-03-29T04:09:52;2.07;;;1.10;;
13032;SDS011;6583;42.632;23.298;2024-03-29T04:12:18;1.53;;;0.83;;
13032;SDS011;6583;42.632;23.298;2024-03-29T04:14:45;2.43;;;1.20;;
13032;SDS011;6583;42.632;23.298;2024-03-29T04:17:11;3.10;;;1.13;;
13032;SDS011;6583;42.632;23.298;2024-03-29T04:19:38;2.23;;;1.10;;
13032;SDS011;6583;42.632;23.298;2024-03-29T04:22:05;3.87;;;1.10;;
13032;SDS011;6583;42.632;23.298;2024-03-29T04:24:32;3.43;;;1.00;;
13032;SDS011;6583;42.632;23.298;2024-03-29T04:26:57;2.03;;;1.10;;
13032;SDS011;6583;42.632;23.298;2024-03-29T04:29:24;1.90;;;1.00;;
13032;SDS011;6583;42.632;23.298;2024-03-29T04:31:50;2.53;;;1.10;;
13032;SDS011;6583;42.632;23.298;2024-03-29T04:34:16;2.57;;;1.00;;
13032;SDS011;6583;42.632;23.298;2024-03-29T04:36:42;3.90;;;1.13;;
13032;SDS011;6583;42.632;23.298;2024-03-29T04:39:10;2.43;;;1.10;;
13032;SDS011;6583;42.632;23.298;2024-03-29T04:41:37;3.50;;;1.00;;
13032;SDS011;6583;42.632;23.298;2024-03-29T04:44:04;2.10;;;0.90;;
13032;SDS011;6583;42.632;23.298;2024-03-29T04:46:33;1.37;;;0.90;;
13032;SDS011;6583;42.632;23.298;2024-03-29T04:48:59;2.97;;;1.30;;
13032;SDS011;6583;42.632;23.298;2024-03-29T04:51:26;5.77;;;2.00;;
13032;SDS011;6583;42.632;23.298;2024-03-29T04:53:53;2.50;;;1.10;;
13032;SDS011;6583;42.632;23.298;2024-03-29T04:56:21;2.87;;;1.33;;
13032;SDS011;6583;42.632;23.298;2024-03-29T04:58:47;3.53;;;1.30;;
13032;SDS011;6583;42.632;23.298;2024-03-29T05:01:14;2.97;;;1.20;;
13032;SDS011;6583;42.632;23.298;2024-03-29T05:03:40;3.00;;;1.00;;
13032;SDS011;6583;42.632;23.298;2024-03-29T05:06:07;1.30;;;1.10;;
13032;SDS011;6583;42.632;23.298;2024-03-29T05:08:34;2.37;;;1.03;;
13032;SDS011;6583;42.632;23.298;2024-03-29T05:11:00;1.27;;;0.93;;
13032;SDS011;6583;42.632;23.298;2024-03-29T05:13:28;3.03;;;1.10;;
13032;SDS011;6583;42.632;23.298;2024-03-29T05:15:57;4.97;;;1.00;;
13032;SDS011;6583;42.632;23.298;2024-03-29T05:18:23;1.20;;;0.70;;
13032;SDS011;6583;42.632;23.298;2024-03-29T05:20:50;1.70;;;0.80;;
13032;SDS011;6583;42.632;23.298;2024-03-29T05:23:17;1.20;;;0.80;;
13032;SDS011;6583;42.632;23.298;2024-03-29T05:25:44;3.70;;;1.00;;
13032;SDS011;6583;42.632;23.298;2024-03-29T05:28:13;2.93;;;0.90;;
13032;SDS011;6583;42.632;23.298;2024-03-29T05:30:41;2.23;;;0.73;;
13032;SDS011;6583;42.632;23.298;2024-03-29T05:33:09;4.10;;;0.83;;
13032;SDS011;6583;42.632;23.298;2024-03-29T05:35:36;1.73;;;0.90;;
13032;SDS011;6583;42.632;23.298;2024-03-29T05:38:02;2.17;;;0.90;;
13032;SDS011;6583;42.632;23.298;2024-03-29T05:40:29;1.63;;;0.90;;
13032;SDS011;6583;42.632;23.298;2024-03-29T05:42:56;1.80;;;0.90;;
13032;SDS011;6583;42.632;23.298;2024-03-29T05:45:23;2.60;;;1.10;;
13032;SDS011;6583;42.632;23.298;2024-03-29T05:47:53;2.20;;;1.00;;
13032;SDS011;6583;42.632;23.298;2024-03-29T05:50:20;1.97;;;1.03;;
13032;SDS011;6583;42.632;23.298;2024-03-29T05:52:48;3.77;;;1.10;;
13032;SDS011;6583;42.632;23.298;2024-03-29T05:55:15;2.10;;;1.20;;
13032;SDS011;6583;42.632;23.298;2024-03-29T05:57:41;2.60;;;1.20;;
13032;SDS011;6583;42.632;23.298;2024-03-29T06:00:10;5.23;;;1.53;;
13032;SDS011;6583;42.632;23.298;2024-03-29T06:02:39;3.20;;;1.50;;
13032;SDS011;6583;42.632;23.298;2024-03-29T06:05:09;3.37;;;1.70;;
13032;SDS011;6583;42.632;23.298;2024-03-29T06:07:36;3.50;;;1.30;;
13032;SDS011;6583;42.632;23.298;2024-03-29T06:10:02;3.23;;;1.43;;
13032;SDS011;6583;42.632;23.298;2024-03-29T06:12:30;2.73;;;0.97;;
13032;SDS011;6583;42.632;23.298;2024-03-29T06:14:58;3.20;;;0.97;;
13032;SDS011;6583;42.632;23.298;2024-03-29T06:17:42;2.37;;;0.90;;
13032;SDS011;6583;42.632;23.298;2024-03-29T06:20:12;2.70;;;1.10;;
13032;SDS011;6583;42.632;23.298;2024-03-29T06:22:38;4.23;;;1.30;;
13032;SDS011;6583;42.632;23.298;2024-03-29T06:25:05;2.67;;;1.47;;
13032;SDS011;6583;42.632;23.298;2024-03-29T06:27:34;3.87;;;1.13;;
13032;SDS011;6583;42.632;23.298;2024-03-29T06:30:02;2.03;;;0.90;;
13032;SDS011;6583;42.632;23.298;2024-03-29T06:32:30;3.17;;;0.80;;
13032;SDS011;6583;42.632;23.298;2024-03-29T06:34:57;1.97;;;1.00;;
13032;SDS011;6583;42.632;23.298;2024-03-29T06:37:26;2.63;;;0.73;;
13032;SDS011;6583;42.632;23.298;2024-03-29T06:39:53;3.57;;;0.90;;
13032;SDS011;6583;42.632;23.298;2024-03-29T06:42:20;1.37;;;0.77;;
13032;SDS011;6583;42.632;23.298;2024-03-29T06:44:47;1.57;;;0.90;;
13032;SDS011;6583;42.632;23.298;2024-03-29T06:47:13;3.33;;;1.87;;
13032;SDS011;6583;42.632;23.298;2024-03-29T06:49:40;1.30;;;0.90;;
13032;SDS011;6583;42.632;23.298;2024-03-29T06:52:07;1.40;;;0.90;;
13032;SDS011;6583;42.632;23.298;2024-03-29T06:54:35;1.70;;;0.70;;
13032;SDS011;6583;42.632;23.298;2024-03-29T06:57:02;2.87;;;0.80;;
13032;SDS011;6583;42.632;23.298;2024-03-29T06:59:29;1.63;;;0.70;;
13032;SDS011;6583;42.632;23.298;2024-03-29T07:01:55;1.27;;;0.80;;
13032;SDS011;6583;42.632;23.298;2024-03-29T07:04:23;2.83;;;1.00;;
13032;SDS011;6583;42.632;23.298;2024-03-29T07:06:50;5.53;;;1.10;;
13032;SDS011;6583;42.632;23.298;2024-03-29T07:09:17;2.43;;;0.90;;
13032;SDS011;6583;42.632;23.298;2024-03-29T07:11:46;2.70;;;0.90;;
13032;SDS011;6583;42.632;23.298;2024-03-29T07:14:13;1.60;;;0.80;;
13032;SDS011;6583;42.632;23.298;2024-03-29T07:16:40;2.37;;;1.13;;
13032;SDS011;6583;42.632;23.298;2024-03-29T07:19:07;2.73;;;0.90;;
13032;SDS011;6583;42.632;23.298;2024-03-29T07:21:34;2.33;;;0.90;;
13032;SDS011;6583;42.632;23.298;2024-03-29T07:24:00;1.80;;;1.10;;
13032;SDS011;6583;42.632;23.298;2024-03-29T07:26:27;2.17;;;0.83;;
13032;SDS011;6583;42.632;23.298;2024-03-29T07:28:55;2.27;;;0.80;;
13032;SDS011;6583;42.632;23.298;2024-03-29T07:31:21;1.43;;;0.97;;
13032;SDS011;6583;42.632;23.298;2024-03-29T07:33:48;3.33;;;0.90;;
13032;SDS011;6583;42.632;23.298;2024-03-29T07:36:15;2.20;;;0.80;;
13032;SDS011;6583;42.632;23.298;2024-03-29T07:38:42;3.10;;;0.98;;
13032;SDS011;6583;42.632;23.298;2024-03-29T07:41:09;2.53;;;1.00;;
13032;SDS011;6583;42.632;23.298;2024-03-29T07:43:38;1.77;;;1.10;;
13032;SDS011;6583;42.632;23.298;2024-03-29T07:46:07;3.33;;;1.38;;
13032;SDS011;6583;42.632;23.298;2024-03-29T07:48:34;3.15;;;1.13;;
13032;SDS011;6583;42.632;23.298;2024-03-29T07:51:02;1.73;;;0.98;;
13032;SDS011;6583;42.632;23.298;2024-03-29T07:53:29;2.78;;;1.00;;
13032;SDS011;6583;42.632;23.298;2024-03-29T07:55:55;1.70;;;1.05;;
13032;SDS011;6583;42.632;23.298;2024-03-29T07:58:21;2.47;;;0.90;;
13032;SDS011;6583;42.632;23.298;2024-03-29T08:00:49;3.20;;;1.00;;
13032;SDS011;6583;42.632;23.298;2024-03-29T08:03:17;5.85;;;1.52;;
13032;SDS011;6583;42.632;23.298;2024-03-29T08:05:53;2.65;;;1.08;;
13032;SDS011;6583;42.632;23.298;2024-03-29T08:08:23;2.72;;;0.90;;
13032;SDS011;6583;42.632;23.298;2024-03-29T08:10:52;3.15;;;0.90;;
13032;SDS011;6583;42.632;23.298;2024-03-29T08:13:19;1.90;;;0.90;;
13032;SDS011;6583;42.632;23.298;2024-03-29T08:15:46;2.92;;;1.20;;
13032;SDS011;6583;42.632;23.298;2024-03-29T08:18:13;3.00;;;1.08;;
13032;SDS011;6583;42.632;23.298;2024-03-29T08:20:41;2.65;;;0.75;;
13032;SDS011;6583;42.632;23.298;2024-03-29T08:23:08;2.08;;;0.95;;
13032;SDS011;6583;42.632;23.298;2024-03-29T08:25:35;2.45;;;0.95;;
13032;SDS011;6583;42.632;23.298;2024-03-29T08:28:01;2.58;;;1.10;;
13032;SDS011;6583;42.632;23.298;2024-03-29T08:30:28;4.50;;;1.10;;
13032;SDS011;6583;42.632;23.298;2024-03-29T08:33:00;2.38;;;1.00;;
13032;SDS011;6583;42.632;23.298;2024-03-29T08:35:27;2.78;;;0.70;;
13032;SDS011;6583;42.632;23.298;2024-03-29T08:37:55;3.17;;;0.90;;
13032;SDS011;6583;42.632;23.298;2024-03-29T08:40:22;3.60;;;0.90;;
13032;SDS011;6583;42.632;23.298;2024-03-29T08:42:49;4.78;;;0.93;;
13032;SDS011;6583;42.632;23.298;2024-03-29T08:45:16;2.30;;;0.90;;
13032;SDS011;6583;42.632;23.298;2024-03-29T08:47:42;1.80;;;0.80;;
13032;SDS011;6583;42.632;23.298;2024-03-29T08:50:09;2.55;;;0.93;;
13032;SDS011;6583;42.632;23.298;2024-03-29T08:52:36;2.63;;;0.82;;
13032;SDS011;6583;42.632;23.298;2024-03-29T08:55:05;2.58;;;0.90;;
13032;SDS011;6583;42.632;23.298;2024-03-29T08:57:32;3.30;;;1.00;;
13032;SDS011;6583;42.632;23.298;2024-03-29T08:59:59;2.25;;;1.00;;
13032;SDS011;6583;42.632;23.298;2024-03-29T09:02:25;3.67;;;1.00;;
13032;SDS011;6583;42.632;23.298;2024-03-29T09:04:52;2.63;;;0.80;;
13032;SDS011;6583;42.632;23.298;2024-03-29T09:07:19;2.90;;;0.90;;
13032;SDS011;6583;42.632;23.298;2024-03-29T09:09:48;3.03;;;0.85;;
13032;SDS011;6583;42.632;23.298;2024-03-29T09:12:17;2.15;;;0.85;;
13032;SDS011;6583;42.632;23.298;2024-03-29T09:14:44;1.90;;;1.00;;
13032;SDS011;6583;42.632;23.298;2024-03-29T09:17:10;2.33;;;0.90;;
13032;SDS011;6583;42.632;23.298;2024-03-29T09:19:37;3.50;;;1.30;;
13032;SDS011;6583;42.632;23.298;2024-03-29T09:22:04;3.85;;;1.00;;
13032;SDS011;6583;42.632;23.298;2024-03-29T09:24:31;3.45;;;0.95;;
13032;SDS011;6583;42.632;23.298;2024-03-29T09:26:59;3.60;;;1.00;;
13032;SDS011;6583;42.632;23.298;2024-03-29T09:29:27;3.05;;;1.00;;
13032;SDS011;6583;42.632;23.298;2024-03-29T09:31:55;4.50;;;1.00;;
13032;SDS011;6583;42.632;23.298;2024-03-29T09:34:22;1.33;;;0.80;;
13032;SDS011;6583;42.632;23.298;2024-03-29T09:36:48;2.42;;;1.00;;
13032;SDS011;6583;42.632;23.298;2024-03-29T09:39:15;3.45;;;0.98;;
13032;SDS011;6583;42.632;23.298;2024-03-29T09:41:43;3.33;;;1.10;;
13032;SDS011;6583;42.632;23.298;2024-03-29T09:44:11;4.88;;;1.00;;
13032;SDS011;6583;42.632;23.298;2024-03-29T09:46:40;4.20;;;1.20;;
13032;SDS011;6583;42.632;23.298;2024-03-29T09:49:08;2.15;;;1.00;;
13032;SDS011;6583;42.632;23.298;2024-03-29T09:51:36;4.05;;;1.00;;
13032;SDS011;6583;42.632;23.298;2024-03-29T09:54:05;2.92;;;1.10;;
13032;SDS011;6583;42.632;23.298;2024-03-29T09:56:38;1.98;;;0.80;;
13032;SDS011;6583;42.632;23.298;2024-03-29T09:59:06;2.90;;;0.98;;
13032;SDS011;6583;42.632;23.298;2024-03-29T10:01:34;2.78;;;1.10;;
13032;SDS011;6583;42.632;23.298;2024-03-29T10:04:02;5.00;;;1.00;;
13032;SDS011;6583;42.632;23.298;2024-03-29T10:06:32;2.95;;;1.13;;
13032;SDS011;6583;42.632;23.298;2024-03-29T10:09:00;2.75;;;1.00;;
13032;SDS011;6583;42.632;23.298;2024-03-29T10:11:27;2.33;;;1.20;;
13032;SDS011;6583;42.632;23.298;2024-03-29T10:13:54;4.05;;;1.00;;
13032;SDS011;6583;42.632;23.298;2024-03-29T10:16:21;2.20;;;1.50;;
13032;SDS011;6583;42.632;23.298;2024-03-29T10:18:49;3.42;;;1.48;;
13032;SDS011;6583;42.632;23.298;2024-03-29T10:21:17;3.35;;;1.20;;
13032;SDS011;6583;42.632;23.298;2024-03-29T10:23:45;2.95;;;1.15;;
13032;SDS011;6583;42.632;23.298;2024-03-29T10:26:13;3.58;;;1.00;;
13032;SDS011;6583;42.632;23.298;2024-03-29T10:28:39;2.25;;;1.00;;
13032;SDS011;6583;42.632;23.298;2024-03-29T10:31:06;2.00;;;0.90;;
13032;SDS011;6583;42.632;23.298;2024-03-29T10:33:33;2.50;;;1.10;;
13032;SDS011;6583;42.632;23.298;2024-03-29T10:36:01;4.25;;;1.13;;
13032;SDS011;6583;42.632;23.298;2024-03-29T10:38:31;3.45;;;1.20;;
13032;SDS011;6583;42.632;23.298;2024-03-29T10:40:58;3.17;;;1.17;;
13032;SDS011;6583;42.632;23.298;2024-03-29T10:43:26;2.38;;;1.10;;
13032;SDS011;6583;42.632;23.298;2024-03-29T10:45:53;2.78;;;1.13;;
13032;SDS011;6583;42.632;23.298;2024-03-29T10:48:24;2.97;;;1.20;;
13032;SDS011;6583;42.632;23.298;2024-03-29T10:50:52;4.22;;;1.10;;
13032;SDS011;6583;42.632;23.298;2024-03-29T10:53:20;4.05;;;1.00;;
13032;SDS011;6583;42.632;23.298;2024-03-29T10:55:51;2.42;;;1.27;;
13032;SDS011;6583;42.632;23.298;2024-03-29T10:58:20;3.17;;;1.30;;
13032;SDS011;6583;42.632;23.298;2024-03-29T11:00:53;3.60;;;1.05;;
13032;SDS011;6583;42.632;23.298;2024-03-29T11:03:26;4.15;;;1.40;;
13032;SDS011;6583;42.632;23.298;2024-03-29T11:06:00;4.32;;;1.30;;
13032;SDS011;6583;42.632;23.298;2024-03-29T11:08:30;3.63;;;1.20;;
13032;SDS011;6583;42.632;23.298;2024-03-29T11:11:02;2.45;;;1.08;;
13032;SDS011;6583;42.632;23.298;2024-03-29T11:13:32;3.38;;;1.63;;
13032;SDS011;6583;42.632;23.298;2024-03-29T11:16:00;4.40;;;1.40;;
13032;SDS011;6583;42.632;23.298;2024-03-29T11:18:27;3.20;;;1.20;;
13032;SDS011;6583;42.632;23.298;2024-03-29T11:20:54;4.50;;;1.20;;
13032;SDS011;6583;42.632;23.298;2024-03-29T11:23:24;4.18;;;1.10;;
13032;SDS011;6583;42.632;23.298;2024-03-29T11:25:54;2.95;;;1.10;;
13032;SDS011;6583;42.632;23.298;2024-03-29T11:28:24;4.63;;;1.45;;
13032;SDS011;6583;42.632;23.298;2024-03-29T11:30:56;4.18;;;1.45;;
13032;SDS011;6583;42.632;23.298;2024-03-29T11:33:28;3.78;;;1.30;;
13032;SDS011;6583;42.632;23.298;2024-03-29T11:35:56;3.35;;;1.30;;
13032;SDS011;6583;42.632;23.298;2024-03-29T11:38:29;3.72;;;1.25;;
13032;SDS011;6583;42.632;23.298;2024-03-29T11:41:06;2.97;;;1.20;;
13032;SDS011;6583;42.632;23.298;2024-03-29T11:43:35;3.40;;;1.30;;
13032;SDS011;6583;42.632;23.298;2024-03-29T11:46:03;3.78;;;1.33;;
13032;SDS011;6583;42.632;23.298;2024-03-29T11:48:32;6.00;;;1.35;;
13032;SDS011;6583;42.632;23.298;2024-03-29T11:50:59;4.05;;;1.52;;
13032;SDS011;6583;42.632;23.298;2024-03-29T11:53:26;5.85;;;1.60;;
13032;SDS011;6583;42.632;23.298;2024-03-29T11:55:54;4.60;;;1.50;;
13032;SDS011;6583;42.632;23.298;2024-03-29T11:58:21;2.13;;;1.13;;
13032;SDS011;6583;42.632;23.298;2024-03-29T12:00:50;3.30;;;1.60;;
13032;SDS011;6583;42.632;23.298;2024-03-29T12:03:17;3.88;;;1.50;;
13032;SDS011;6583;42.632;23.298;2024-03-29T12:05:46;5.75;;;1.35;;
13032;SDS011;6583;42.632;23.298;2024-03-29T12:08:13;3.50;;;1.42;;
13032;SDS011;6583;42.632;23.298;2024-03-29T12:10:40;4.97;;;1.65;;
13032;SDS011;6583;42.632;23.298;2024-03-29T12:13:07;5.28;;;1.25;;
13032;SDS011;6583;42.632;23.298;2024-03-29T12:15:34;4.72;;;1.30;;
13032;SDS011;6583;42.632;23.298;2024-03-29T12:18:03;3.97;;;1.25;;
13032;SDS011;6583;42.632;23.298;2024-03-29T12:20:31;4.93;;;1.23;;
13032;SDS011;6583;42.632;23.298;2024-03-29T12:22:58;4.22;;;1.10;;
13032;SDS011;6583;42.632;23.298;2024-03-29T12:25:26;5.32;;;1.40;;
13032;SDS011;6583;42.632;23.298;2024-03-29T12:27:53;5.57;;;1.13;;
13032;SDS011;6583;42.632;23.298;2024-03-29T12:30:20;3.10;;;1.05;;
13032;SDS011;6583;42.632;23.298;2024-03-29T12:32:48;4.50;;;1.38;;
13032;SDS011;6583;42.632;23.298;2024-03-29T12:35:16;3.70;;;1.50;;
13032;SDS011;6583;42.632;23.298;2024-03-29T12:37:49;3.33;;;1.48;;
13032;SDS011;6583;42.632;23.298;2024-03-29T12:40:16;4.97;;;1.50;;
13032;SDS011;6583;42.632;23.298;2024-03-29T12:42:47;5.40;;;1.67;;
13032;SDS011;6583;42.632;23.298;2024-03-29T12:45:14;3.97;;;1.30;;
13032;SDS011;6583;42.632;23.298;2024-03-29T12:47:42;2.80;;;1.50;;
13032;SDS011;6583;42.632;23.298;2024-03-29T12:50:08;3.10;;;1.33;;
13032;SDS011;6583;42.632;23.298;2024-03-29T12:52:40;4.22;;;1.10;;
13032;SDS011;6583;42.632;23.298;2024-03-29T12:55:08;5.70;;;1.13;;
13032;SDS011;6583;42.632;23.298;2024-03-29T12:57:35;3.30;;;1.50;;
13032;SDS011;6583;42.632;23.298;2024-03-29T13:00:04;3.95;;;1.30;;
13032;SDS011;6583;42.632;23.298;2024-03-29T13:02:34;5.10;;;1.52;;
13032;SDS011;6583;42.632;23.298;2024-03-29T13:05:01;2.58;;;1.13;;
13032;SDS011;6583;42.632;23.298;2024-03-29T13:07:28;4.32;;;1.50;;
13032;SDS011;6583;42.632;23.298;2024-03-29T13:09:56;4.43;;;1.40;;
13032;SDS011;6583;42.632;23.298;2024-03-29T13:12:24;3.20;;;1.00;;
13032;SDS011;6583;42.632;23.298;2024-03-29T13:14:51;5.18;;;1.30;;
13032;SDS011;6583;42.632;23.298;2024-03-29T13:17:18;4.22;;;1.50;;
13032;SDS011;6583;42.632;23.298;2024-03-29T13:19:44;2.42;;;1.00;;
13032;SDS011;6583;42.632;23.298;2024-03-29T13:22:11;4.03;;;1.20;;
13032;SDS011;6583;42.632;23.298;2024-03-29T13:24:38;6.82;;;1.40;;
13032;SDS011;6583;42.632;23.298;2024-03-29T13:27:06;4.47;;;1.30;;
13032;SDS011;6583;42.632;23.298;2024-03-29T13:29:32;3.20;;;1.05;;
13032;SDS011;6583;42.632;23.298;2024-03-29T13:31:59;3.00;;;1.00;;
13032;SDS011;6583;42.632;23.298;2024-03-29T13:34:26;2.42;;;1.05;;
13032;SDS011;6583;42.632;23.298;2024-03-29T13:36:52;3.13;;;1.17;;
13032;SDS011;6583;42.632;23.298;2024-03-29T13:39:20;3.47;;;1.10;;
13032;SDS011;6583;42.632;23.298;2024-03-29T13:41:48;2.33;;;0.98;;
13032;SDS011;6583;42.632;23.298;2024-03-29T13:44:16;3.95;;;1.20;;
13032;SDS011;6583;42.632;23.298;2024-03-29T13:46:43;3.20;;;1.00;;
13032;SDS011;6583;42.632;23.298;2024-03-29T13:49:10;4.63;;;1.52;;
13032;SDS011;6583;42.632;23.298;2024-03-29T13:51:37;2.03;;;0.95;;
13032;SDS011;6583;42.632;23.298;2024-03-29T13:54:04;4.97;;;1.20;;
13032;SDS011;6583;42.632;23.298;2024-03-29T13:56:31;3.05;;;0.80;;
13032;SDS011;6583;42.632;23.298;2024-03-29T13:58:57;4.55;;;1.20;;
13032;SDS011;6583;42.632;23.298;2024-03-29T14:01:25;5.22;;;1.20;;
13032;SDS011;6583;42.632;23.298;2024-03-29T14:03:52;2.53;;;1.00;;
13032;SDS011;6583;42.632;23.298;2024-03-29T14:06:20;3.10;;;1.05;;
13032;SDS011;6583;42.632;23.298;2024-03-29T14:08:47;4.60;;;1.40;;
13032;SDS011;6583;42.632;23.298;2024-03-29T14:11:13;4.88;;;1.30;;
13032;SDS011;6583;42.632;23.298;2024-03-29T14:13:43;6.35;;;1.00;;
13032;SDS011;6583;42.632;23.298;2024-03-29T14:16:12;7.65;;;1.30;;
13032;SDS011;6583;42.632;23.298;2024-03-29T14:18:40;2.42;;;1.00;;
13032;SDS011;6583;42.632;23.298;2024-03-29T14:21:07;3.17;;;0.90;;
13032;SDS011;6583;42.632;23.298;2024-03-29T14:23:34;3.90;;;1.08;;
13032;SDS011;6583;42.632;23.298;2024-03-29T14:26:00;4.00;;;1.08;;
13032;SDS011;6583;42.632;23.298;2024-03-29T14:28:27;3.70;;;1.10;;
13032;SDS011;6583;42.632;23.298;2024-03-29T14:30:54;4.40;;;1.20;;
13032;SDS011;6583;42.632;23.298;2024-03-29T14:33:20;3.70;;;1.15;;
13032;SDS011;6583;42.632;23.298;2024-03-29T14:35:48;5.45;;;1.35;;
13032;SDS011;6583;42.632;23.298;2024-03-29T14:38:15;4.80;;;1.10;;
13032;SDS011;6583;42.632;23.298;2024-03-29T14:40:42;9.13;;;1.23;;
13032;SDS011;6583;42.632;23.298;2024-03-29T14:43:08;6.75;;;1.58;;
13032;SDS011;6583;42.632;23.298;2024-03-29T14:45:35;5.70;;;1.45;;
13032;SDS011;6583;42.632;23.298;2024-03-29T14:48:02;4.05;;;1.25;;